Time;durP1;ratioP1;P1;durP2;ratioP2;P2;SDS_P1;SDS_P2;PMS_P1;PMS_P2;Temp;Humidity;BMP_temperature;BMP_pressure;BME280_temperature;BME280_humidity;BME280_pressure;Samples;Min_cycle;Max_cycle;Signal;HPM_P1;HPM_P2
2021/08/29 11:45:23;;;;;;;3.25;1.60;;;18.40;54.30;;;;;;6161483;23;20274;-85
2021/08/29 11:47:50;;;;;;;2.88;1.80;;;18.10;54.20;;;;;;6160282;23;20493;-85
2021/08/29 11:50:20;;;;;;;1.73;1.50;;;17.80;58.80;;;;;;6159395;23;20175;-85
2021/08/29 11:52:47;;;;;;;1.65;1.55;;;17.70;57.80;;;;;;6158679;23;20168;-85
2021/08/29 12:19:39;;;;;;;2.17;1.70;;;18.10;59.10;;;;;;6165372;23;20194;-85
2021/08/29 12:22:25;;;;;;;1.60;1.50;;;18.40;60.40;;;;;;6159928;23;20699;-85
2021/08/29 12:24:52;;;;;;;1.58;1.48;;;18.40;59.10;;;;;;6158913;23;20199;-86
2021/08/29 12:27:35;;;;;;;1.73;1.63;;;18.40;59.50;;;;;;6160546;23;20164;-85
2021/08/29 12:30:06;;;;;;;2.15;1.77;;;18.60;61.00;;;;;;6158373;23;20218;-86
2021/08/29 13:09:36;;;;;;;2.08;1.50;;;18.80;59.10;;;;;;6130813;23;20516;-85
2021/08/29 13:12:30;;;;;;;2.28;2.08;;;19.00;57.50;;;;;;6130692;23;20168;-85
2021/08/29 13:14:59;;;;;;;1.50;1.40;;;19.10;55.10;;;;;;6129980;23;20219;-85
2021/08/29 13:17:26;;;;;;;2.90;1.70;;;18.80;54.80;;;;;;6130534;23;20651;-86
2021/08/29 13:20:00;;;;;;;1.48;1.38;;;18.60;54.60;;;;;;6129109;23;20270;-85
2021/08/29 13:22:29;;;;;;;1.73;1.60;;;18.40;57.70;;;;;;6129997;23;20178;-86
2021/08/29 13:24:57;;;;;;;1.50;1.40;;;18.10;59.90;;;;;;6129259;23;20287;-85
2021/08/29 13:27:53;;;;;;;1.45;1.35;;;18.00;58.60;;;;;;6129873;23;20164;-85
2021/08/29 13:30:24;;;;;;;1.45;1.35;;;18.00;59.20;;;;;;6129684;23;20187;-85
2021/08/29 13:32:51;;;;;;;2.88;1.65;;;18.00;58.00;;;;;;6123667;23;20589;-86
2021/08/29 13:35:20;;;;;;;1.45;1.35;;;18.20;58.30;;;;;;6100044;23;20641;-86
2021/08/29 13:38:01;;;;;;;1.50;1.40;;;18.30;54.40;;;;;;6099382;23;20161;-85
2021/08/29 13:40:32;;;;;;;1.67;1.58;;;18.30;55.70;;;;;;6100663;23;20199;-85
2021/08/29 13:43:09;;;;;;;1.50;1.40;;;18.40;54.50;;;;;;6100764;23;20203;-85
2021/08/29 14:06:31;;;;;;;1.30;1.20;;;17.50;61.60;;;;;;6108699;23;20204;-84
2021/08/29 14:08:58;;;;;;;1.40;1.30;;;17.80;59.90;;;;;;6106870;23;20212;-86
2021/08/29 14:11:24;;;;;;;1.70;1.60;;;17.80;61.20;;;;;;6102634;23;20220;-84
2021/08/29 14:27:55;;;;;;;1.77;1.67;;;17.50;61.60;;;;;;6106371;23;20172;-86
2021/08/29 14:47:07;;;;;;;4.78;1.58;;;16.70;73.50;;;;;;6175277;23;20199;-86
2021/08/29 14:49:34;;;;;;;1.30;1.20;;;16.80;70.10;;;;;;6166405;23;20246;-85
2021/08/29 14:52:01;;;;;;;1.40;1.30;;;16.90;64.20;;;;;;6164975;23;20267;-85
2021/08/29 14:54:27;;;;;;;1.30;1.20;;;16.90;64.70;;;;;;6164109;23;20286;-86
2021/08/29 14:56:54;;;;;;;1.35;1.25;;;16.90;65.30;;;;;;6164077;23;20258;-85
2021/08/29 14:59:21;;;;;;;1.80;1.30;;;16.90;63.50;;;;;;6167131;23;20226;-86
2021/08/29 15:01:48;;;;;;;1.27;1.17;;;16.70;66.00;;;;;;6165258;23;20258;-86
2021/08/29 15:04:16;;;;;;;1.98;1.23;;;16.70;68.10;;;;;;6163451;23;20179;-86
2021/08/29 15:06:43;;;;;;;1.33;1.23;;;16.60;67.30;;;;;;6163109;23;20211;-86
2021/08/29 15:09:17;;;;;;;1.85;1.40;;;16.60;68.40;;;;;;6164259;23;20267;-86
2021/08/29 15:11:44;;;;;;;1.83;1.40;;;16.60;67.70;;;;;;6163305;23;20218;-85
2021/08/29 15:14:11;;;;;;;1.10;1.05;;;16.50;68.10;;;;;;6161607;23;20238;-89
2021/08/29 15:16:38;;;;;;;1.27;1.17;;;16.50;70.00;;;;;;6157119;23;20262;-89
2021/08/29 15:19:05;;;;;;;2.78;1.50;;;16.40;70.60;;;;;;6159356;23;20262;-88
2021/08/29 15:21:33;;;;;;;1.10;1.10;;;16.40;72.40;;;;;;6162046;23;20218;-86
2021/08/29 15:24:00;;;;;;;1.63;1.45;;;16.40;69.00;;;;;;6161738;23;20282;-86
2021/08/29 15:26:27;;;;;;;1.67;1.30;;;16.40;69.80;;;;;;6162593;23;20246;-87
2021/08/29 15:28:54;;;;;;;1.45;1.35;;;16.40;69.00;;;;;;6167590;23;20265;-86
2021/08/29 15:31:20;;;;;;;1.40;1.17;;;16.30;69.50;;;;;;6162487;23;20203;-85
2021/08/29 15:33:47;;;;;;;1.27;1.20;;;16.20;72.40;;;;;;6162309;23;20234;-87
2021/08/29 15:36:14;;;;;;;1.25;1.15;;;16.10;73.00;;;;;;6161567;23;20179;-89
2021/08/29 15:38:47;;;;;;;1.80;1.70;;;16.00;71.20;;;;;;6160276;23;20233;-89
2021/08/29 15:41:17;;;;;;;1.40;1.30;;;15.90;75.20;;;;;;6162845;23;20196;-89
2021/08/29 15:43:45;;;;;;;1.40;1.30;;;15.80;74.10;;;;;;6160848;23;20207;-89
2021/08/29 15:46:12;;;;;;;2.45;1.48;;;15.70;76.50;;;;;;6162194;23;20231;-90
2021/08/29 15:48:39;;;;;;;1.92;1.67;;;15.60;76.10;;;;;;6158901;23;20203;-88
2021/08/29 15:51:07;;;;;;;1.50;1.25;;;15.60;77.70;;;;;;6152845;23;20273;-89
2021/08/29 15:53:34;;;;;;;1.40;1.30;;;15.40;77.60;;;;;;6155714;23;20598;-89
2021/08/29 15:56:02;;;;;;;1.52;1.42;;;15.30;77.50;;;;;;6149165;23;20207;-89
2021/08/29 15:58:30;;;;;;;1.52;1.42;;;15.20;79.50;;;;;;6157973;23;20286;-89
2021/08/29 16:00:57;;;;;;;1.55;1.45;;;15.20;81.10;;;;;;6162595;23;20226;-88
2021/08/29 16:03:27;;;;;;;1.55;1.45;;;15.20;82.40;;;;;;6159839;23;20211;-91
2021/08/29 16:05:54;;;;;;;3.08;1.40;;;15.20;83.60;;;;;;6156662;23;20187;-91
2021/08/29 16:08:21;;;;;;;1.40;1.30;;;15.30;83.80;;;;;;6156245;23;20289;-90
2021/08/29 16:10:48;;;;;;;1.30;1.20;;;15.50;82.10;;;;;;6155371;23;20226;-90
2021/08/29 16:13:16;;;;;;;1.88;1.48;;;15.60;81.50;;;;;;6156821;23;20265;-90
2021/08/29 16:15:43;;;;;;;1.67;1.50;;;15.80;81.80;;;;;;6158775;23;20278;-89
2021/08/29 16:18:11;;;;;;;1.52;1.30;;;15.90;81.30;;;;;;6157794;23;20270;-89
2021/08/29 16:20:38;;;;;;;1.70;1.60;;;16.00;82.10;;;;;;6160864;23;20182;-90
2021/08/29 16:23:05;;;;;;;3.33;3.00;;;16.00;78.10;;;;;;6159424;23;20227;-91
2021/08/29 16:25:32;;;;;;;1.50;1.40;;;15.80;77.90;;;;;;6158267;23;20262;-89
2021/08/29 16:27:59;;;;;;;1.33;1.23;;;15.70;81.30;;;;;;6156395;23;20584;-90
2021/08/29 16:30:27;;;;;;;1.70;1.20;;;15.60;83.60;;;;;;6156828;23;20258;-89
2021/08/29 16:32:56;;;;;;;1.30;1.20;;;15.60;82.20;;;;;;6156978;23;20196;-90
2021/08/29 16:35:23;;;;;;;1.20;1.10;;;15.60;82.00;;;;;;6156810;23;20223;-89
2021/08/29 16:37:53;;;;;;;1.90;1.63;;;15.60;83.10;;;;;;6155701;23;20313;-89
2021/08/29 16:40:20;;;;;;;1.60;1.40;;;15.40;83.50;;;;;;6155271;23;20167;-89
2021/08/29 16:42:47;;;;;;;1.58;1.48;;;15.30;84.30;;;;;;6152925;23;20259;-89
2021/08/29 16:45:15;;;;;;;1.10;1.08;;;15.30;85.80;;;;;;6153564;23;20184;-91
2021/08/29 16:47:45;;;;;;;1.42;1.33;;;15.30;85.70;;;;;;6154486;23;20653;-89
2021/08/29 16:50:12;;;;;;;1.40;1.30;;;15.30;86.70;;;;;;6155724;23;20168;-87
2021/08/29 16:52:39;;;;;;;1.48;1.38;;;15.30;87.50;;;;;;6154929;23;20254;-87
2021/08/29 16:55:07;;;;;;;1.27;1.17;;;15.40;86.80;;;;;;6155650;23;20187;-87
2021/08/29 16:57:38;;;;;;;1.33;1.15;;;15.30;87.50;;;;;;6156393;23;20299;-89
2021/08/29 17:00:06;;;;;;;1.35;1.25;;;15.20;88.20;;;;;;6155282;23;20593;-89
2021/08/29 17:06:02;;;;;;;3.90;1.95;;;15.10;90.10;;;;;;6158848;23;20236;-88
2021/08/29 17:08:29;;;;;;;1.67;1.30;;;15.00;90.10;;;;;;6159028;23;20282;-88
2021/08/29 17:10:56;;;;;;;1.40;1.30;;;15.10;89.60;;;;;;6158018;23;20179;-88
2021/08/29 17:13:23;;;;;;;1.85;1.05;;;15.10;90.10;;;;;;6157233;23;20203;-90
2021/08/29 17:15:50;;;;;;;1.67;1.17;;;15.10;89.80;;;;;;6157505;23;20286;-88
2021/08/29 17:18:17;;;;;;;1.30;1.20;;;15.00;90.10;;;;;;6155914;23;20284;-90
2021/08/29 17:20:47;;;;;;;2.05;1.55;;;15.10;90.10;;;;;;6155149;23;20182;-90
2021/08/29 17:23:15;;;;;;;1.40;1.30;;;15.10;90.40;;;;;;6151091;23;20207;-90
2021/08/29 17:25:42;;;;;;;1.42;1.33;;;15.00;90.20;;;;;;6152398;23;20167;-90
2021/08/29 17:28:10;;;;;;;1.65;1.17;;;14.90;89.30;;;;;;6152299;23;20210;-89
2021/08/29 17:30:37;;;;;;;1.38;1.27;;;14.90;90.20;;;;;;6153264;23;20176;-89
2021/08/29 17:33:03;;;;;;;1.30;1.20;;;14.90;90.20;;;;;;6154347;23;20238;-90
2021/08/29 17:35:31;;;;;;;1.42;1.30;;;14.90;90.20;;;;;;6154420;23;20199;-91
2021/08/29 17:37:58;;;;;;;1.55;1.38;;;14.90;90.60;;;;;;6157083;23;20258;-89
2021/08/29 17:40:28;;;;;;;1.45;1.27;;;14.90;90.90;;;;;;6155330;23;20222;-90
2021/08/29 17:42:55;;;;;;;1.58;1.48;;;14.90;91.00;;;;;;6153681;23;20167;-88
2021/08/29 17:45:23;;;;;;;1.60;1.50;;;14.80;90.70;;;;;;6154600;23;20270;-89
2021/08/29 17:47:50;;;;;;;2.50;1.52;;;14.80;91.40;;;;;;6154579;23;20266;-89
2021/08/29 17:50:17;;;;;;;1.83;1.30;;;14.80;91.40;;;;;;6154438;23;20694;-90
2021/08/29 17:52:44;;;;;;;1.52;1.40;;;14.80;91.40;;;;;;6152599;23;20836;-90
2021/08/29 17:55:12;;;;;;;1.70;1.60;;;14.70;91.40;;;;;;6154314;23;20598;-90
2021/08/29 17:57:42;;;;;;;1.48;1.38;;;14.60;92.30;;;;;;6153693;23;20258;-89
2021/08/29 18:00:12;;;;;;;1.30;1.20;;;14.60;92.50;;;;;;6156741;23;20478;-89
2021/08/29 18:02:40;;;;;;;2.00;1.42;;;14.50;92.80;;;;;;6156434;23;20249;-89
2021/08/29 18:05:09;;;;;;;1.40;1.30;;;14.50;93.00;;;;;;6157724;23;20187;-88
2021/08/29 18:07:37;;;;;;;1.38;1.27;;;14.50;93.10;;;;;;6158089;23;20537;-89
2021/08/29 18:10:08;;;;;;;1.60;1.50;;;14.50;93.40;;;;;;6158064;23;20273;-89
2021/08/29 18:12:35;;;;;;;2.80;1.50;;;14.50;93.10;;;;;;6156414;23;20198;-89
2021/08/29 18:15:06;;;;;;;2.22;1.45;;;14.50;93.20;;;;;;6156488;23;20218;-89
2021/08/29 18:17:34;;;;;;;1.50;1.40;;;14.50;93.20;;;;;;6159756;23;20171;-90
2021/08/29 18:20:01;;;;;;;1.25;1.15;;;14.40;93.30;;;;;;6159941;23;20207;-89
2021/08/29 18:22:30;;;;;;;1.63;1.52;;;14.20;93.70;;;;;;6160075;23;20258;-89
2021/08/29 18:24:57;;;;;;;1.40;1.30;;;14.20;94.70;;;;;;6159093;23;20636;-89
2021/08/29 18:27:25;;;;;;;1.65;1.55;;;14.20;94.80;;;;;;6160263;23;20182;-91
2021/08/29 18:29:52;;;;;;;1.65;1.55;;;14.20;94.70;;;;;;6160804;23;20213;-87
2021/08/29 18:32:22;;;;;;;2.00;1.40;;;14.20;95.60;;;;;;6137704;23;20176;-88
2021/08/29 18:34:50;;;;;;;2.28;1.40;;;14.20;95.20;;;;;;6160888;23;20206;-89
2021/08/29 18:37:19;;;;;;;2.28;1.80;;;14.30;95.20;;;;;;6163530;23;20171;-89
2021/08/29 18:39:48;;;;;;;2.13;1.67;;;14.20;95.30;;;;;;6159541;23;20207;-88
2021/08/29 18:42:16;;;;;;;1.48;1.38;;;14.10;95.70;;;;;;6163015;23;20228;-89
2021/08/29 18:44:44;;;;;;;2.08;1.60;;;14.10;95.90;;;;;;6161693;23;20211;-90
2021/08/29 18:47:11;;;;;;;2.92;1.60;;;14.10;96.30;;;;;;6160941;23;20202;-89
2021/08/29 18:49:40;;;;;;;1.80;1.70;;;14.00;96.70;;;;;;6160977;23;20222;-89
2021/08/29 18:52:08;;;;;;;1.95;1.50;;;14.10;96.70;;;;;;6161887;23;20182;-88
2021/08/29 18:54:36;;;;;;;2.17;1.63;;;14.10;96.70;;;;;;6160231;23;20290;-89
2021/08/29 18:57:04;;;;;;;1.58;1.48;;;14.20;96.70;;;;;;6162492;23;20710;-88
2021/08/29 18:59:32;;;;;;;1.60;1.50;;;14.20;96.70;;;;;;6157828;23;20546;-89
2021/08/29 19:02:00;;;;;;;1.50;1.40;;;14.20;96.70;;;;;;6158640;23;20202;-90
2021/08/29 19:04:28;;;;;;;1.50;1.40;;;14.20;96.70;;;;;;6156521;23;20235;-89
2021/08/29 19:06:57;;;;;;;1.70;1.60;;;14.30;96.70;;;;;;6158820;23;20171;-90
2021/08/29 19:09:24;;;;;;;1.55;1.45;;;14.30;96.70;;;;;;6159163;23;20231;-90
2021/08/29 19:11:52;;;;;;;1.60;1.50;;;14.40;96.80;;;;;;6157738;23;20186;-89
2021/08/29 19:14:19;;;;;;;1.70;1.55;;;14.40;96.60;;;;;;6159137;23;20302;-89
2021/08/29 19:16:47;;;;;;;1.52;1.42;;;14.40;96.40;;;;;;6158627;23;20231;-88
2021/08/29 19:19:14;;;;;;;2.33;1.60;;;14.40;96.50;;;;;;6132336;23;20219;-89
2021/08/29 19:21:43;;;;;;;2.55;1.70;;;14.30;96.50;;;;;;6158800;23;20186;-88
2021/08/29 19:24:12;;;;;;;2.55;1.58;;;14.30;96.40;;;;;;6156189;23;20254;-89
2021/08/29 19:26:39;;;;;;;1.67;1.58;;;14.30;96.70;;;;;;6156937;23;20747;-89
2021/08/29 19:29:06;;;;;;;2.50;2.13;;;14.30;96.70;;;;;;6154359;23;20215;-90
2021/08/29 19:31:33;;;;;;;3.03;2.35;;;14.40;96.80;;;;;;6156300;23;20246;-89
2021/08/29 19:34:03;;;;;;;2.35;2.17;;;14.30;96.70;;;;;;6155946;23;20249;-88
2021/08/29 19:36:30;;;;;;;2.20;1.90;;;14.40;96.80;;;;;;6155553;23;20310;-89
2021/08/29 19:38:58;;;;;;;1.73;1.63;;;14.30;96.70;;;;;;6155260;23;20257;-89
2021/08/29 19:41:26;;;;;;;2.25;2.00;;;14.40;96.80;;;;;;6156798;23;20258;-89
2021/08/29 19:43:53;;;;;;;1.95;1.63;;;14.30;97.00;;;;;;6155400;23;20203;-88
2021/08/29 19:46:20;;;;;;;2.00;1.90;;;14.30;96.70;;;;;;6153670;23;20501;-90
2021/08/29 19:48:48;;;;;;;2.33;2.10;;;14.40;96.80;;;;;;6154616;23;20282;-89
2021/08/29 19:51:15;;;;;;;3.50;1.83;;;14.40;96.80;;;;;;6155734;23;20175;-89
2021/08/29 19:53:49;;;;;;;1.73;1.63;;;14.40;96.80;;;;;;6155682;23;20277;-88
2021/08/29 19:56:18;;;;;;;2.50;2.17;;;14.30;97.20;;;;;;6155995;23;20195;-89
2021/08/29 19:58:47;;;;;;;3.65;1.75;;;14.30;97.20;;;;;;6156087;23;20213;-88
2021/08/29 20:01:14;;;;;;;2.15;1.85;;;14.40;97.30;;;;;;6156755;23;20199;-91
2021/08/29 20:03:42;;;;;;;1.85;1.70;;;14.30;97.30;;;;;;6155312;23;20206;-90
2021/08/29 20:06:09;;;;;;;1.77;1.67;;;14.40;97.30;;;;;;6156297;23;20262;-90
2021/08/29 20:08:36;;;;;;;1.98;1.77;;;14.30;97.50;;;;;;6158777;23;20218;-91
2021/08/29 20:11:03;;;;;;;1.90;1.65;;;14.30;97.70;;;;;;6159752;23;20258;-88
2021/08/29 20:13:30;;;;;;;2.10;1.77;;;14.30;97.70;;;;;;6160222;23;20249;-88
2021/08/29 20:16:00;;;;;;;3.35;2.08;;;14.20;98.20;;;;;;6157433;23;20203;-89
2021/08/29 20:18:34;;;;;;;2.35;1.73;;;14.20;98.80;;;;;;6160111;23;20571;-90
2021/08/29 20:21:01;;;;;;;2.38;2.17;;;14.20;98.70;;;;;;6158215;23;20175;-89
2021/08/29 20:23:28;;;;;;;2.40;2.20;;;14.10;98.70;;;;;;6153324;23;20278;-90
2021/08/29 20:25:55;;;;;;;3.15;2.38;;;14.10;99.10;;;;;;6160199;23;20206;-89
2021/08/29 20:28:23;;;;;;;2.50;2.30;;;14.10;99.30;;;;;;6136696;23;20211;-90
2021/08/29 20:30:50;;;;;;;2.20;2.00;;;14.10;99.60;;;;;;6159759;23;20186;-88
2021/08/29 20:33:19;;;;;;;2.85;2.30;;;14.10;99.30;;;;;;6159459;23;20218;-88
2021/08/29 20:35:46;;;;;;;2.70;2.47;;;14.10;99.30;;;;;;6161370;23;20196;-88
2021/08/29 20:38:13;;;;;;;2.30;2.10;;;14.10;99.50;;;;;;6164638;23;20254;-88
2021/08/29 20:40:40;;;;;;;2.30;2.10;;;14.10;99.30;;;;;;6165038;23;20217;-89
2021/08/29 20:43:07;;;;;;;2.08;1.77;;;14.20;99.30;;;;;;6163869;23;20208;-88
2021/08/29 20:45:34;;;;;;;1.95;1.85;;;14.10;99.60;;;;;;6166188;23;20258;-88
2021/08/29 20:48:02;;;;;;;2.20;2.00;;;14.10;99.70;;;;;;6166153;23;20223;-88
2021/08/29 20:50:31;;;;;;;2.10;1.90;;;14.10;99.60;;;;;;6162977;23;20214;-89
2021/08/29 20:52:59;;;;;;;2.05;1.90;;;14.00;99.90;;;;;;6163344;23;20184;-87
2021/08/29 20:55:27;;;;;;;1.85;1.65;;;14.00;99.90;;;;;;6165012;23;20198;-89
2021/08/29 20:57:54;;;;;;;2.10;1.90;;;14.00;99.90;;;;;;6167076;23;20190;-88
2021/08/29 21:00:22;;;;;;;1.95;1.80;;;14.00;99.90;;;;;;6165264;23;20179;-89
2021/08/29 21:02:49;;;;;;;2.47;1.90;;;14.00;99.90;;;;;;6140930;23;20183;-88
2021/08/29 21:05:16;;;;;;;1.83;1.70;;;14.00;99.90;;;;;;6166278;23;20181;-88
2021/08/29 21:07:45;;;;;;;1.88;1.75;;;13.90;99.90;;;;;;6164794;23;20175;-88
2021/08/29 21:10:13;;;;;;;2.22;2.03;;;13.90;99.90;;;;;;6163565;23;20246;-89
2021/08/29 21:12:40;;;;;;;1.80;1.70;;;14.00;99.90;;;;;;6166259;23;20210;-89
2021/08/29 21:15:07;;;;;;;3.45;1.55;;;14.00;99.90;;;;;;6163685;23;20207;-89
2021/08/29 21:17:34;;;;;;;1.77;1.67;;;14.10;99.90;;;;;;6163699;23;20241;-89
2021/08/29 21:20:01;;;;;;;2.40;1.80;;;14.10;99.90;;;;;;6157293;23;20234;-90
2021/08/29 21:22:29;;;;;;;2.17;1.90;;;14.10;99.90;;;;;;6157697;23;20190;-90
2021/08/29 21:24:57;;;;;;;2.38;1.70;;;14.20;99.90;;;;;;6160829;23;20293;-89
2021/08/29 21:27:24;;;;;;;1.80;1.70;;;14.20;99.80;;;;;;6163490;23;20195;-88
2021/08/29 21:29:51;;;;;;;2.13;1.90;;;14.20;99.70;;;;;;6162108;23;20226;-89
2021/08/29 21:32:18;;;;;;;1.95;1.85;;;14.20;99.70;;;;;;6161973;23;20954;-89
2021/08/29 21:34:45;;;;;;;3.15;1.98;;;14.20;99.70;;;;;;6162145;23;20254;-88
2021/08/29 21:37:12;;;;;;;2.08;1.88;;;14.10;99.80;;;;;;6162369;23;20196;-88
2021/08/29 21:39:39;;;;;;;3.80;2.17;;;14.10;99.90;;;;;;6158757;23;20218;-89
2021/08/29 21:42:08;;;;;;;2.10;1.88;;;14.10;99.90;;;;;;6156472;23;20250;-89
2021/08/29 21:44:35;;;;;;;1.95;1.85;;;14.10;99.90;;;;;;6159603;23;20278;-89
2021/08/29 21:47:02;;;;;;;3.45;2.28;;;14.00;99.90;;;;;;6164651;23;20202;-90
2021/08/29 21:49:29;;;;;;;2.30;2.10;;;14.00;99.90;;;;;;6166776;23;20222;-89
2021/08/29 21:51:57;;;;;;;2.20;2.00;;;13.90;99.90;;;;;;6167373;23;20198;-88
2021/08/29 21:54:24;;;;;;;2.10;1.90;;;13.90;99.90;;;;;;6167644;23;20245;-87
2021/08/29 21:57:17;;;;;;;2.72;2.25;;;13.90;99.90;;;;;;6167955;23;20195;-89
2021/08/29 21:59:46;;;;;;;2.40;2.00;;;14.00;99.90;;;;;;6167178;23;20592;-88
2021/08/29 22:02:13;;;;;;;2.17;2.08;;;13.90;99.90;;;;;;6168839;23;20199;-89
2021/08/29 22:04:41;;;;;;;2.58;2.38;;;13.90;99.90;;;;;;6168274;23;20499;-88
2021/08/29 22:07:09;;;;;;;2.20;2.00;;;13.90;99.90;;;;;;6168852;23;20179;-88
2021/08/29 22:09:36;;;;;;;2.30;2.10;;;13.90;99.90;;;;;;6166500;23;20213;-89
2021/08/29 22:12:03;;;;;;;1.83;1.73;;;13.90;99.90;;;;;;6168791;23;20203;-89
2021/08/29 22:14:30;;;;;;;2.33;2.08;;;13.90;99.90;;;;;;6168935;23;20241;-90
2021/08/29 22:16:59;;;;;;;2.28;2.08;;;13.90;99.90;;;;;;6167953;23;20202;-88
2021/08/29 22:19:32;;;;;;;2.10;1.90;;;13.80;99.90;;;;;;6166822;23;20233;-88
2021/08/29 22:22:01;;;;;;;1.98;1.80;;;13.80;99.90;;;;;;6167312;23;20206;-87
2021/08/29 22:24:28;;;;;;;2.35;1.98;;;13.80;99.90;;;;;;6166259;23;20227;-88
2021/08/29 22:26:56;;;;;;;1.98;1.80;;;13.80;99.90;;;;;;6168556;23;20183;-88
2021/08/29 22:29:26;;;;;;;1.80;1.52;;;13.80;99.90;;;;;;6167454;23;20269;-88
2021/08/29 22:31:53;;;;;;;1.83;1.73;;;13.70;99.90;;;;;;6168103;23;20195;-88
2021/08/29 22:34:33;;;;;;;3.13;1.80;;;13.60;99.90;;;;;;6167538;23;20242;-88
2021/08/29 22:37:00;;;;;;;1.58;1.30;;;13.60;99.90;;;;;;6168847;23;20223;-87
2021/08/29 22:39:27;;;;;;;1.50;1.40;;;13.70;99.90;;;;;;6166362;23;20215;-88
2021/08/29 22:41:54;;;;;;;2.10;1.73;;;13.60;99.90;;;;;;6167893;23;20199;-88
2021/08/29 22:44:23;;;;;;;1.88;1.70;;;13.50;99.90;;;;;;6167548;23;20234;-89
2021/08/29 22:46:51;;;;;;;1.83;1.73;;;13.50;99.90;;;;;;6168484;23;20171;-89
2021/08/29 22:49:18;;;;;;;1.92;1.65;;;13.50;99.90;;;;;;6166427;23;20207;-88
2021/08/29 22:51:47;;;;;;;2.08;1.83;;;13.60;99.90;;;;;;6166017;23;20180;-88
2021/08/29 22:54:14;;;;;;;1.70;1.60;;;13.60;99.90;;;;;;6166917;23;20207;-87
2021/08/29 22:56:41;;;;;;;1.90;1.67;;;13.60;99.90;;;;;;6167376;23;20634;-87
2021/08/29 22:59:12;;;;;;;2.08;1.67;;;13.60;99.90;;;;;;6167855;23;20207;-87
2021/08/29 23:01:40;;;;;;;1.50;1.40;;;13.60;99.90;;;;;;6167289;23;20168;-87
2021/08/29 23:04:14;;;;;;;1.88;1.60;;;13.60;99.90;;;;;;6168105;23;20230;-88
2021/08/29 23:06:48;;;;;;;1.80;1.70;;;13.50;99.90;;;;;;6168426;23;20182;-87
2021/08/29 23:11:57;;;;;;;1.60;1.50;;;13.50;99.90;;;;;;6166362;23;20181;-88
2021/08/29 23:14:27;;;;;;;1.88;1.48;;;13.50;99.90;;;;;;6166993;23;20207;-88
2021/08/29 23:17:13;;;;;;;1.42;1.33;;;13.50;99.90;;;;;;6167922;23;20234;-87
2021/08/29 23:20:20;;;;;;;1.55;1.45;;;13.50;99.90;;;;;;6165068;23;20203;-88
2021/08/29 23:22:48;;;;;;;1.55;1.45;;;13.50;99.90;;;;;;6148937;23;20175;-87
2021/08/29 23:25:17;;;;;;;1.52;1.42;;;13.40;99.90;;;;;;6168647;23;20186;-88
2021/08/29 23:30:33;;;;;;;1.58;1.48;;;13.50;99.90;;;;;;6147689;23;20496;-88
2021/08/29 23:33:00;;;;;;;1.70;1.60;;;13.50;99.90;;;;;;6167323;23;20195;-88
2021/08/29 23:35:27;;;;;;;1.40;1.30;;;13.50;99.90;;;;;;6167952;23;20179;-88
2021/08/29 23:37:57;;;;;;;1.40;1.30;;;13.50;99.90;;;;;;6168199;23;20195;-87
2021/08/29 23:40:26;;;;;;;1.33;1.23;;;13.60;99.90;;;;;;6166663;23;20175;-88
2021/08/29 23:45:35;;;;;;;1.60;1.50;;;13.50;99.90;;;;;;6166370;23;20181;-88
2021/08/29 23:54:11;;;;;;;1.80;1.70;;;13.50;99.90;;;;;;6118163;23;20229;-88
2021/08/29 23:56:41;;;;;;;3.75;1.90;;;13.40;99.90;;;;;;6167672;23;20203;-88
2021/08/29 23:59:08;;;;;;;1.88;1.77;;;13.40;99.90;;;;;;6164896;23;20207;-89
